Time;durP1;ratioP1;P1;durP2;ratioP2;P2;SDS_P1;SDS_P2;PMS_P1;PMS_P2;Temp;Humidity;BMP_temperature;BMP_pressure;BME280_temperature;BME280_humidity;BME280_pressure;Samples;Min_cycle;Max_cycle;Signal;HPM_P1;HPM_P2
2022/03/17 00:00:38;;;;;;;9.93;5.45;;;3.10;99.90;;;;;;5073592;28;20040;-70
2022/03/17 00:03:03;;;;;;;9.88;6.03;;;3.10;99.90;;;;;;5073883;28;20028;-71
2022/03/17 00:05:29;;;;;;;10.07;5.53;;;3.10;99.90;;;;;;5073928;28;20028;-71
2022/03/17 00:07:55;;;;;;;9.40;5.38;;;3.00;99.90;;;;;;5073824;28;20020;-71
2022/03/17 00:10:21;;;;;;;9.48;5.28;;;3.00;99.90;;;;;;5073242;28;20487;-71
2022/03/17 00:12:48;;;;;;;10.65;5.85;;;2.90;99.90;;;;;;5075672;28;20039;-71
2022/03/17 00:15:14;;;;;;;10.57;6.15;;;2.90;99.90;;;;;;5079924;28;20095;-71
2022/03/17 00:17:43;;;;;;;12.23;7.03;;;2.80;99.90;;;;;;5079942;28;20062;-71
2022/03/17 00:20:10;;;;;;;11.35;6.70;;;2.80;99.90;;;;;;5079898;28;20103;-70
2022/03/17 00:22:37;;;;;;;10.30;6.13;;;2.80;99.90;;;;;;5080469;28;20380;-71
2022/03/17 00:25:05;;;;;;;11.73;6.70;;;2.90;99.90;;;;;;5079849;28;20027;-71
2022/03/17 00:27:31;;;;;;;10.98;6.25;;;2.90;99.90;;;;;;5078552;28;20029;-71
2022/03/17 00:29:57;;;;;;;12.63;6.32;;;2.90;99.90;;;;;;5079676;28;20028;-71
2022/03/17 00:32:23;;;;;;;13.25;6.13;;;2.90;99.90;;;;;;5079764;28;20078;-71
2022/03/17 00:37:34;;;;;;;12.02;6.30;;;2.90;99.90;;;;;;5080029;28;20403;-71
2022/03/17 00:40:00;;;;;;;11.00;6.28;;;2.90;99.90;;;;;;5079597;28;20020;-71
2022/03/17 00:42:27;;;;;;;11.25;5.75;;;2.80;99.90;;;;;;5079696;28;20031;-71
2022/03/17 00:44:54;;;;;;;16.95;6.95;;;2.80;99.90;;;;;;5079906;28;20032;-71
2022/03/17 00:47:21;;;;;;;12.75;6.63;;;2.70;99.90;;;;;;5079624;28;20016;-71
2022/03/17 00:49:47;;;;;;;12.57;6.60;;;2.60;99.90;;;;;;5079729;28;20077;-70
2022/03/17 00:52:14;;;;;;;13.27;6.60;;;2.50;99.90;;;;;;5078344;28;20024;-71
2022/03/17 00:54:41;;;;;;;12.90;7.35;;;2.50;99.90;;;;;;5078270;28;20385;-71
2022/03/17 00:57:08;;;;;;;11.98;6.72;;;2.40;99.90;;;;;;5079463;28;20024;-71
2022/03/17 00:59:33;;;;;;;12.27;6.38;;;2.50;99.90;;;;;;5079526;28;20507;-70
2022/03/17 01:01:59;;;;;;;13.32;6.38;;;2.50;99.90;;;;;;5078243;28;20032;-70
2022/03/17 01:04:25;;;;;;;12.20;6.30;;;2.50;99.90;;;;;;5079548;28;20030;-71
2022/03/17 01:06:50;;;;;;;11.40;5.47;;;2.50;99.90;;;;;;5079465;28;20397;-71
2022/03/17 01:09:16;;;;;;;12.40;6.40;;;2.50;99.90;;;;;;5079576;28;20389;-70
2022/03/17 01:11:42;;;;;;;10.98;5.82;;;2.60;99.90;;;;;;5079426;28;20469;-71
2022/03/17 01:14:08;;;;;;;12.90;7.03;;;2.60;99.90;;;;;;5079465;28;20551;-71
2022/03/17 01:16:34;;;;;;;11.45;6.57;;;2.60;99.90;;;;;;5079397;28;20025;-71
2022/03/17 01:18:59;;;;;;;11.02;6.38;;;2.50;99.90;;;;;;5079356;28;20450;-71
2022/03/17 01:21:25;;;;;;;9.85;6.00;;;2.50;99.90;;;;;;5079924;28;20040;-71
2022/03/17 01:23:51;;;;;;;11.35;5.28;;;2.40;99.90;;;;;;5078331;28;20025;-71
2022/03/17 01:26:16;;;;;;;12.38;6.22;;;2.30;99.90;;;;;;5075601;28;20095;-71
2022/03/17 01:28:42;;;;;;;12.02;6.50;;;2.30;99.90;;;;;;5076279;28;20036;-71
2022/03/17 01:31:08;;;;;;;10.82;5.82;;;2.40;99.90;;;;;;5076686;28;20050;-70
2022/03/17 01:33:34;;;;;;;9.70;5.75;;;2.40;99.90;;;;;;5076065;28;20028;-71
2022/03/17 01:36:00;;;;;;;10.45;5.88;;;2.40;99.90;;;;;;5076017;28;20028;-71
2022/03/17 01:38:26;;;;;;;9.65;5.68;;;2.50;99.90;;;;;;5075975;28;20469;-71
2022/03/17 01:40:51;;;;;;;11.73;6.43;;;2.50;99.90;;;;;;5075816;28;20032;-71
2022/03/17 01:43:19;;;;;;;11.50;6.22;;;2.50;99.90;;;;;;5075814;28;20020;-71
2022/03/17 01:45:45;;;;;;;9.80;5.97;;;2.40;99.90;;;;;;5075816;28;20388;-71
2022/03/17 01:48:11;;;;;;;9.75;6.07;;;2.40;99.90;;;;;;5075666;28;20032;-71
2022/03/17 01:50:37;;;;;;;11.23;5.97;;;2.40;99.90;;;;;;5075607;28;20024;-70
2022/03/17 01:53:03;;;;;;;10.23;6.22;;;2.40;99.90;;;;;;5075916;28;20522;-71
2022/03/17 01:55:30;;;;;;;10.05;5.82;;;2.40;99.90;;;;;;5075612;28;20492;-71
2022/03/17 01:57:57;;;;;;;10.65;5.95;;;2.40;99.90;;;;;;5075423;28;20025;-71
2022/03/17 02:00:23;;;;;;;10.18;5.80;;;2.40;99.90;;;;;;5075436;28;20477;-70
2022/03/17 02:02:50;;;;;;;10.07;6.13;;;2.40;99.90;;;;;;5075426;28;20024;-71
2022/03/17 02:05:17;;;;;;;10.35;5.57;;;2.40;99.90;;;;;;5075422;28;20099;-71
2022/03/17 02:07:52;;;;;;;11.25;6.38;;;2.30;99.90;;;;;;5075401;28;20013;-71
2022/03/17 02:10:19;;;;;;;8.93;5.85;;;2.30;99.90;;;;;;5076074;28;20369;-71
2022/03/17 02:15:33;;;;;;;9.43;6.28;;;2.20;99.90;;;;;;5075836;28;20036;-71
2022/03/17 02:18:00;;;;;;;10.35;6.20;;;2.10;99.90;;;;;;5075182;28;20024;-71
2022/03/17 02:20:26;;;;;;;9.52;5.95;;;2.10;99.90;;;;;;5075096;28;20027;-70
2022/03/17 02:22:54;;;;;;;10.52;6.25;;;2.00;99.90;;;;;;5075122;28;20099;-71
2022/03/17 02:25:36;;;;;;;10.10;6.07;;;2.00;99.90;;;;;;5073731;28;20166;-71
2022/03/17 02:28:06;;;;;;;9.20;6.07;;;2.00;99.90;;;;;;5075486;28;20036;-71
2022/03/17 02:30:34;;;;;;;10.10;5.88;;;2.00;99.90;;;;;;5074819;28;20024;-70
2022/03/17 02:33:06;;;;;;;9.32;6.10;;;1.90;99.90;;;;;;5075186;28;20032;-71
2022/03/17 02:35:33;;;;;;;10.32;6.15;;;2.00;99.90;;;;;;5074958;28;20021;-71
2022/03/17 02:38:02;;;;;;;10.07;6.15;;;2.00;99.90;;;;;;5074784;28;20025;-71
2022/03/17 02:40:28;;;;;;;8.82;5.43;;;2.10;99.90;;;;;;5074634;28;20020;-71
2022/03/17 02:42:57;;;;;;;9.77;6.00;;;2.10;99.90;;;;;;5074680;28;20024;-71
2022/03/17 02:45:23;;;;;;;12.15;7.68;;;2.10;99.90;;;;;;5074596;28;20021;-71
2022/03/17 02:47:49;;;;;;;14.25;7.82;;;2.10;99.90;;;;;;5074631;28;20082;-71
2022/03/17 02:50:15;;;;;;;15.10;8.10;;;2.10;99.90;;;;;;5074377;28;20020;-70
2022/03/17 02:52:41;;;;;;;14.00;7.85;;;2.10;99.90;;;;;;5074510;28;20099;-71
2022/03/17 02:55:09;;;;;;;13.05;7.10;;;2.10;99.90;;;;;;5074472;28;20036;-71
2022/03/17 02:57:36;;;;;;;12.48;7.25;;;2.20;99.90;;;;;;5074245;28;20059;-71
2022/03/17 03:00:04;;;;;;;14.52;7.40;;;2.10;99.90;;;;;;5074229;28;20021;-70
2022/03/17 03:02:30;;;;;;;17.33;9.70;;;2.10;99.90;;;;;;5074837;28;20388;-71
2022/03/17 03:04:55;;;;;;;17.05;8.50;;;2.00;99.90;;;;;;5074239;28;20070;-71
2022/03/17 03:07:21;;;;;;;13.65;8.48;;;2.00;99.90;;;;;;5074422;28;20039;-71
2022/03/17 03:09:47;;;;;;;12.65;7.60;;;2.00;99.90;;;;;;5074194;28;20033;-70
2022/03/17 03:12:13;;;;;;;10.20;6.85;;;2.00;99.90;;;;;;5072845;28;20032;-71
2022/03/17 03:14:38;;;;;;;11.30;6.85;;;2.00;99.90;;;;;;5074111;28;20021;-71
2022/03/17 03:17:04;;;;;;;9.48;5.90;;;2.00;99.90;;;;;;5072687;28;20021;-70
2022/03/17 03:19:30;;;;;;;8.45;5.00;;;2.00;99.90;;;;;;5073939;28;20020;-70
2022/03/17 03:21:56;;;;;;;8.55;5.35;;;2.00;99.90;;;;;;5073943;28;20107;-71
2022/03/17 03:24:21;;;;;;;9.38;5.25;;;1.90;99.90;;;;;;5073903;28;20032;-71
2022/03/17 03:26:47;;;;;;;9.95;5.28;;;1.90;99.90;;;;;;5074149;28;20134;-71
2022/03/17 03:31:41;;;;;;;9.77;5.70;;;1.90;99.90;;;;;;5074012;28;20025;-71
2022/03/17 03:34:08;;;;;;;11.38;5.53;;;1.90;99.90;;;;;;5073751;28;20108;-71
2022/03/17 03:39:18;;;;;;;9.32;5.38;;;1.90;99.90;;;;;;5073874;28;20052;-70
2022/03/17 03:41:44;;;;;;;8.65;5.20;;;1.90;99.90;;;;;;5073593;28;20473;-71
2022/03/17 03:44:12;;;;;;;11.05;6.15;;;1.90;99.90;;;;;;5073596;28;20040;-71
2022/03/17 03:46:38;;;;;;;11.10;6.65;;;1.90;99.90;;;;;;5073852;28;20017;-71
2022/03/17 03:49:04;;;;;;;12.40;6.25;;;1.90;99.90;;;;;;5072896;28;20021;-71
2022/03/17 03:51:29;;;;;;;11.27;6.88;;;1.90;99.90;;;;;;5073502;28;20023;-71
2022/03/17 03:54:13;;;;;;;11.48;6.55;;;1.90;99.90;;;;;;5073513;28;20048;-71
2022/03/17 03:56:49;;;;;;;9.75;5.90;;;2.00;99.90;;;;;;5073647;28;20036;-71
2022/03/17 04:01:44;;;;;;;9.30;5.60;;;1.90;99.90;;;;;;5073718;28;20536;-71
2022/03/17 04:04:14;;;;;;;7.45;5.20;;;2.00;99.90;;;;;;5073383;28;20104;-71
2022/03/17 04:06:42;;;;;;;9.43;5.30;;;1.90;99.90;;;;;;5073658;28;20103;-71
2022/03/17 04:09:07;;;;;;;6.50;4.75;;;1.90;99.90;;;;;;5073715;28;20031;-69
2022/03/17 04:11:33;;;;;;;8.23;4.82;;;1.80;99.90;;;;;;5073848;28;20386;-71
2022/03/17 04:13:59;;;;;;;11.20;7.57;;;1.80;99.90;;;;;;5073312;28;20108;-71
2022/03/17 04:16:24;;;;;;;8.18;5.53;;;1.80;99.90;;;;;;5073531;28;20017;-70
2022/03/17 04:18:50;;;;;;;7.40;4.70;;;1.80;99.90;;;;;;5073511;28;20031;-71
2022/03/17 04:21:17;;;;;;;8.27;4.57;;;1.70;99.90;;;;;;5073421;28;20020;-70
2022/03/17 04:23:42;;;;;;;8.65;4.95;;;1.70;99.90;;;;;;5073484;28;20123;-70
2022/03/17 04:26:08;;;;;;;9.35;5.20;;;1.60;99.90;;;;;;5073414;28;20020;-71
2022/03/17 04:28:34;;;;;;;8.98;4.35;;;1.60;99.90;;;;;;5073074;28;20024;-71
2022/03/17 04:30:59;;;;;;;9.40;5.38;;;1.50;99.90;;;;;;5073095;28;20485;-70
2022/03/17 04:33:25;;;;;;;9.00;5.30;;;1.60;99.90;;;;;;5073130;28;20024;-71
2022/03/17 04:35:51;;;;;;;11.40;5.97;;;1.60;99.90;;;;;;5073357;28;20016;-71
2022/03/17 04:38:16;;;;;;;8.00;4.60;;;1.50;99.90;;;;;;5073320;28;20075;-71
2022/03/17 04:40:48;;;;;;;10.70;5.90;;;1.60;99.90;;;;;;5071690;28;20385;-70
2022/03/17 04:43:17;;;;;;;14.25;6.45;;;1.60;99.90;;;;;;5073616;28;20048;-71
2022/03/17 04:45:44;;;;;;;14.13;6.97;;;1.60;99.90;;;;;;5071735;28;20108;-71
2022/03/17 04:48:10;;;;;;;14.52;7.03;;;1.60;99.90;;;;;;5073192;28;20027;-71
2022/03/17 04:50:36;;;;;;;12.88;6.55;;;1.60;99.90;;;;;;5072953;28;20392;-71
2022/03/17 04:55:46;;;;;;;11.18;6.25;;;1.60;99.90;;;;;;5073496;28;20385;-71
2022/03/17 04:58:13;;;;;;;13.98;5.63;;;1.60;99.90;;;;;;5072734;28;20033;-71
2022/03/17 05:00:41;;;;;;;12.25;6.15;;;1.60;99.90;;;;;;5075015;28;20463;-70
2022/03/17 05:03:11;;;;;;;11.07;5.35;;;1.50;99.90;;;;;;5076862;28;20492;-71
2022/03/17 05:05:37;;;;;;;9.10;5.72;;;1.50;99.90;;;;;;5076544;28;20020;-70
2022/03/17 05:08:05;;;;;;;11.25;6.03;;;1.50;99.90;;;;;;5076512;28;20489;-71
2022/03/17 05:10:33;;;;;;;10.75;5.50;;;1.50;99.90;;;;;;5076404;28;20492;-71
2022/03/17 05:12:59;;;;;;;10.20;5.30;;;1.50;99.90;;;;;;5076361;28;20056;-70
2022/03/17 05:15:25;;;;;;;9.60;5.28;;;1.50;99.90;;;;;;5076672;28;20070;-70
2022/03/17 05:17:51;;;;;;;10.68;5.47;;;1.50;99.90;;;;;;5075055;28;20024;-70
2022/03/17 05:20:17;;;;;;;72.68;26.13;;;1.50;99.90;;;;;;5076609;28;20067;-70
2022/03/17 05:22:43;;;;;;;58.78;22.90;;;1.50;99.90;;;;;;5076479;28;20054;-71
2022/03/17 05:25:10;;;;;;;68.88;27.80;;;1.50;99.90;;;;;;5075972;28;20027;-70
2022/03/17 05:27:38;;;;;;;61.88;23.08;;;1.50;99.90;;;;;;5076416;28;20048;-70
2022/03/17 05:30:04;;;;;;;33.33;14.00;;;1.50;99.90;;;;;;5076073;28;20108;-70
2022/03/17 05:32:30;;;;;;;26.33;11.25;;;1.50;99.90;;;;;;5075998;28;20025;-70
2022/03/17 05:34:56;;;;;;;147.35;61.75;;;1.50;99.90;;;;;;5075999;28;20434;-70
2022/03/17 05:37:21;;;;;;;109.72;46.78;;;1.50;99.90;;;;;;5075898;28;20028;-70
2022/03/17 05:39:47;;;;;;;89.32;36.70;;;1.50;99.90;;;;;;5075872;28;20052;-70
2022/03/17 05:42:13;;;;;;;54.90;25.45;;;1.60;99.90;;;;;;5075900;28;20032;-70
2022/03/17 05:44:38;;;;;;;41.42;18.17;;;1.50;99.90;;;;;;5076143;28;20024;-70
2022/03/17 05:47:04;;;;;;;23.38;12.10;;;1.50;99.90;;;;;;5076067;28;20036;-70
2022/03/17 05:49:30;;;;;;;17.50;8.50;;;1.60;99.90;;;;;;5075650;28;20025;-69
2022/03/17 05:51:56;;;;;;;29.73;13.35;;;1.60;99.90;;;;;;5075985;28;20024;-70
2022/03/17 05:54:22;;;;;;;39.50;17.20;;;1.60;99.90;;;;;;5075715;28;20043;-70
2022/03/17 05:56:47;;;;;;;161.60;55.67;;;1.60;99.90;;;;;;5075770;28;20028;-71
2022/03/17 05:59:13;;;;;;;132.60;48.85;;;1.60;99.90;;;;;;5075549;28;20032;-70
2022/03/17 06:01:40;;;;;;;87.90;35.33;;;1.60;99.90;;;;;;5075452;28;20059;-70
2022/03/17 06:04:06;;;;;;;56.28;24.15;;;1.50;99.90;;;;;;5075741;28;20024;-71
2022/03/17 06:06:31;;;;;;;45.00;20.05;;;1.50;99.90;;;;;;5076224;28;20038;-71
2022/03/17 06:08:57;;;;;;;38.53;17.17;;;1.50;99.90;;;;;;5075854;28;20021;-71
2022/03/17 06:11:23;;;;;;;22.15;12.50;;;1.50;99.90;;;;;;5074753;28;20013;-71
2022/03/17 06:13:49;;;;;;;38.63;18.35;;;1.60;99.90;;;;;;5075349;28;20021;-71
2022/03/17 06:16:14;;;;;;;35.00;16.13;;;1.60;99.90;;;;;;5075265;28;20413;-71
2022/03/17 06:18:40;;;;;;;29.60;14.23;;;1.60;99.90;;;;;;5075211;28;20029;-70
2022/03/17 06:21:06;;;;;;;28.63;14.35;;;1.50;99.90;;;;;;5075069;28;20031;-70
2022/03/17 06:23:32;;;;;;;27.10;13.15;;;1.60;99.90;;;;;;5075108;28;20105;-71
2022/03/17 06:25:59;;;;;;;25.35;13.88;;;1.50;99.90;;;;;;5075315;28;20496;-70
2022/03/17 06:28:25;;;;;;;20.80;10.98;;;1.60;99.90;;;;;;5074914;28;20017;-71
2022/03/17 06:30:51;;;;;;;14.18;8.68;;;1.60;99.90;;;;;;5074910;28;20024;-70
2022/03/17 06:33:17;;;;;;;15.27;8.35;;;1.70;99.90;;;;;;5075433;28;20020;-71
2022/03/17 06:35:43;;;;;;;15.60;8.70;;;1.70;99.90;;;;;;5074843;28;20021;-71
2022/03/17 06:38:08;;;;;;;17.05;9.55;;;1.70;99.90;;;;;;5075066;28;20420;-71
2022/03/17 06:40:35;;;;;;;19.45;10.20;;;1.70;99.90;;;;;;5074644;28;20017;-70
2022/03/17 06:43:04;;;;;;;16.67;9.27;;;1.70;99.90;;;;;;5074638;28;20016;-71
2022/03/17 06:45:30;;;;;;;16.50;8.43;;;1.80;99.90;;;;;;5074573;28;20036;-71
2022/03/17 06:47:56;;;;;;;17.42;9.57;;;1.80;99.90;;;;;;5074626;28;20534;-71
2022/03/17 06:50:22;;;;;;;17.35;9.25;;;1.90;99.90;;;;;;5074639;28;20396;-70
2022/03/17 06:52:49;;;;;;;23.42;11.75;;;1.90;99.90;;;;;;5074737;28;20082;-71
2022/03/17 06:55:15;;;;;;;20.90;10.27;;;2.00;99.90;;;;;;5074426;28;20025;-71
2022/03/17 06:57:42;;;;;;;18.48;10.98;;;2.00;99.90;;;;;;5074294;28;20036;-71
2022/03/17 07:00:10;;;;;;;17.15;10.45;;;2.00;99.90;;;;;;5074279;28;20074;-70
2022/03/17 07:02:36;;;;;;;16.92;9.45;;;2.00;99.90;;;;;;5074180;28;20077;-71
2022/03/17 07:05:02;;;;;;;14.75;8.55;;;2.10;99.90;;;;;;5074203;28;20095;-71
2022/03/17 07:07:28;;;;;;;17.50;9.45;;;2.10;99.90;;;;;;5074206;28;20029;-71
2022/03/17 07:09:54;;;;;;;16.40;8.95;;;2.10;99.90;;;;;;5074260;28;20393;-70
2022/03/17 07:12:20;;;;;;;10.63;7.15;;;2.20;99.90;;;;;;5074078;28;20392;-71
2022/03/17 07:14:46;;;;;;;12.52;7.65;;;2.30;99.90;;;;;;5074364;28;20021;-71
2022/03/17 07:17:12;;;;;;;10.90;6.15;;;2.30;99.90;;;;;;5074034;28;20016;-71
2022/03/17 07:19:37;;;;;;;12.82;6.70;;;2.40;99.90;;;;;;5073934;28;20052;-70
2022/03/17 07:22:04;;;;;;;10.32;6.38;;;2.40;99.90;;;;;;5073835;28;20465;-71
2022/03/17 07:24:30;;;;;;;10.55;6.15;;;2.40;99.90;;;;;;5072452;28;20106;-71
2022/03/17 07:26:56;;;;;;;11.25;6.28;;;2.50;99.90;;;;;;5073887;28;20077;-71
2022/03/17 07:29:21;;;;;;;12.05;7.05;;;2.50;99.90;;;;;;5073672;28;20400;-70
2022/03/17 07:31:47;;;;;;;13.13;7.22;;;2.60;99.90;;;;;;5073773;28;20036;-71
2022/03/17 07:34:13;;;;;;;14.00;7.60;;;2.70;99.90;;;;;;5073787;28;20143;-71
2022/03/17 07:36:40;;;;;;;12.07;6.80;;;2.70;99.90;;;;;;5073738;28;20039;-71
2022/03/17 07:39:06;;;;;;;12.75;7.63;;;2.70;99.90;;;;;;5073608;28;20101;-70
2022/03/17 07:41:32;;;;;;;14.63;8.68;;;2.80;99.90;;;;;;5073940;28;20020;-71
2022/03/17 07:43:59;;;;;;;14.27;8.70;;;2.90;99.90;;;;;;5073607;28;20024;-71
2022/03/17 07:46:26;;;;;;;14.48;8.23;;;2.90;99.90;;;;;;5073632;28;20101;-71
2022/03/17 07:48:52;;;;;;;16.13;8.38;;;2.90;99.90;;;;;;5073472;28;20485;-71
2022/03/17 07:51:20;;;;;;;16.45;7.45;;;3.00;99.90;;;;;;5073506;28;20051;-71
2022/03/17 07:53:46;;;;;;;16.40;8.82;;;3.00;99.90;;;;;;5073488;28;20016;-71
2022/03/17 07:56:12;;;;;;;13.27;8.38;;;3.10;99.90;;;;;;5072231;28;20025;-71
2022/03/17 07:58:39;;;;;;;13.02;7.93;;;3.10;99.90;;;;;;5073420;28;20040;-71
2022/03/17 08:01:05;;;;;;;28.85;17.02;;;3.10;99.90;;;;;;5073629;28;20025;-71
2022/03/17 08:03:31;;;;;;;48.05;26.08;;;3.20;99.90;;;;;;5073670;28;20024;-71
2022/03/17 08:05:57;;;;;;;53.67;29.60;;;3.30;99.90;;;;;;5073321;28;20074;-70
2022/03/17 08:08:24;;;;;;;41.10;22.70;;;3.40;99.90;;;;;;5073220;28;20028;-70
2022/03/17 08:10:50;;;;;;;33.10;19.33;;;3.40;99.90;;;;;;5073467;28;20028;-70
2022/03/17 08:13:15;;;;;;;30.92;17.13;;;3.50;99.90;;;;;;5073511;28;20481;-71
2022/03/17 08:15:42;;;;;;;27.88;16.83;;;3.50;99.90;;;;;;5073576;28;20537;-71
2022/03/17 08:18:08;;;;;;;27.65;15.95;;;3.60;99.90;;;;;;5073107;28;20020;-71
2022/03/17 08:20:41;;;;;;;22.05;13.90;;;3.70;99.90;;;;;;5073228;28;20131;-70
2022/03/17 08:23:08;;;;;;;18.73;12.10;;;3.80;99.90;;;;;;5073473;28;20021;-71
2022/03/17 08:25:35;;;;;;;15.68;9.20;;;3.80;99.90;;;;;;5073132;28;20025;-71
2022/03/17 08:28:02;;;;;;;14.80;8.70;;;3.90;99.90;;;;;;5072860;28;20027;-71
2022/03/17 08:30:29;;;;;;;15.52;8.77;;;3.90;99.90;;;;;;5072931;28;20020;-71
2022/03/17 08:32:55;;;;;;;13.75;8.38;;;4.00;99.90;;;;;;5073195;28;20020;-71
2022/03/17 08:35:21;;;;;;;18.15;10.10;;;4.00;99.90;;;;;;5076654;28;20019;-71
2022/03/17 08:37:47;;;;;;;15.88;8.98;;;4.10;99.90;;;;;;5077655;28;20029;-71
2022/03/17 08:40:14;;;;;;;15.50;8.75;;;4.20;99.90;;;;;;5076960;28;20093;-70
2022/03/17 08:42:41;;;;;;;17.38;11.30;;;4.20;99.90;;;;;;5076961;28;20039;-70
2022/03/17 08:50:42;;;;;;;19.00;11.52;;;4.60;99.90;;;;;;5076871;28;20035;-71
2022/03/17 08:53:08;;;;;;;21.55;11.07;;;4.80;99.90;;;;;;5076799;28;20025;-71
2022/03/17 08:55:34;;;;;;;19.15;10.15;;;5.00;99.90;;;;;;5076647;28;20020;-71
2022/03/17 08:58:00;;;;;;;14.15;8.95;;;5.10;99.90;;;;;;5076417;28;20154;-71
2022/03/17 09:00:26;;;;;;;16.00;8.40;;;5.20;99.90;;;;;;5076833;28;20032;-71
2022/03/17 09:02:55;;;;;;;21.25;9.93;;;5.30;99.90;;;;;;5076561;28;20096;-71
2022/03/17 09:05:21;;;;;;;21.02;9.07;;;5.40;99.90;;;;;;5076808;28;20031;-71
2022/03/17 09:07:47;;;;;;;15.85;8.93;;;5.50;99.90;;;;;;5075209;28;20028;-71
2022/03/17 09:10:13;;;;;;;16.65;9.30;;;5.50;99.90;;;;;;5076440;28;20074;-70
2022/03/17 09:12:39;;;;;;;20.05;9.55;;;5.60;99.90;;;;;;5076398;28;20078;-71
2022/03/17 09:15:05;;;;;;;21.17;10.13;;;5.70;99.90;;;;;;5076248;28;20389;-71
2022/03/17 09:17:31;;;;;;;15.50;9.18;;;5.70;99.90;;;;;;5076737;28;20028;-71
2022/03/17 09:19:57;;;;;;;13.55;8.90;;;5.70;99.90;;;;;;5076441;28;20028;-70
2022/03/17 09:22:23;;;;;;;19.23;9.73;;;5.80;99.90;;;;;;5076421;28;20503;-71
2022/03/17 09:24:48;;;;;;;16.52;9.15;;;5.90;99.90;;;;;;5076244;28;20396;-71
2022/03/17 09:27:17;;;;;;;14.90;8.80;;;5.90;99.90;;;;;;5076670;28;20483;-71
2022/03/17 09:29:43;;;;;;;18.27;9.57;;;6.00;99.90;;;;;;5075931;28;20024;-71
2022/03/17 09:32:11;;;;;;;19.20;9.57;;;6.00;99.90;;;;;;5076066;28;20023;-71
2022/03/17 09:34:37;;;;;;;17.90;8.85;;;6.10;99.90;;;;;;5076229;28;20043;-71
2022/03/17 09:37:03;;;;;;;18.98;9.05;;;6.20;99.90;;;;;;5076181;28;20464;-71
2022/03/17 09:39:46;;;;;;;20.90;9.75;;;6.20;99.90;;;;;;5075810;28;20439;-70
2022/03/17 09:42:14;;;;;;;20.40;10.95;;;6.30;99.90;;;;;;5075888;28;20030;-71
2022/03/17 09:44:41;;;;;;;20.17;10.82;;;6.30;99.90;;;;;;5075671;28;20476;-71
2022/03/17 09:47:11;;;;;;;22.17;12.30;;;6.30;99.90;;;;;;5075357;28;20033;-71
2022/03/17 09:49:38;;;;;;;19.40;10.55;;;6.40;99.90;;;;;;5075616;28;20025;-71
2022/03/17 09:52:13;;;;;;;25.27;10.90;;;6.40;99.90;;;;;;5076015;28;20017;-71
2022/03/17 09:54:40;;;;;;;20.77;10.95;;;6.40;99.90;;;;;;5075987;28;20108;-71
2022/03/17 09:57:05;;;;;;;21.33;11.40;;;6.50;99.90;;;;;;5075513;28;20116;-71
2022/03/17 09:59:31;;;;;;;22.95;12.40;;;6.50;99.90;;;;;;5074200;28;20115;-71
2022/03/17 10:01:58;;;;;;;18.80;10.80;;;6.50;99.90;;;;;;5075479;28;20039;-71
2022/03/17 10:04:23;;;;;;;22.92;11.10;;;6.50;99.90;;;;;;5075453;28;20503;-71
2022/03/17 10:06:50;;;;;;;18.42;11.05;;;6.60;99.90;;;;;;5075414;28;20029;-71
2022/03/17 10:09:17;;;;;;;18.63;10.68;;;6.60;99.90;;;;;;5073975;28;20032;-70
2022/03/17 10:11:43;;;;;;;17.63;10.68;;;6.70;99.90;;;;;;5074082;28;20035;-71
2022/03/17 10:14:09;;;;;;;24.33;11.23;;;6.70;99.90;;;;;;5075306;28;20381;-71
2022/03/17 10:16:37;;;;;;;18.58;11.18;;;6.90;99.90;;;;;;5075263;28;20032;-71
2022/03/17 10:19:10;;;;;;;19.42;11.07;;;7.00;99.90;;;;;;5075113;28;20381;-69
2022/03/17 10:21:37;;;;;;;16.63;9.90;;;7.10;99.90;;;;;;5075136;28;20028;-71
2022/03/17 10:24:06;;;;;;;20.17;9.82;;;7.20;99.90;;;;;;5075361;28;20376;-71
2022/03/17 10:26:50;;;;;;;17.50;9.60;;;7.20;99.90;;;;;;5075033;28;20433;-71
2022/03/17 10:29:26;;;;;;;16.58;8.85;;;7.30;99.90;;;;;;5075110;28;20060;-70
2022/03/17 10:32:12;;;;;;;19.60;9.13;;;7.30;99.90;;;;;;5075233;28;20094;-71
2022/03/17 10:34:47;;;;;;;15.30;8.32;;;7.40;99.90;;;;;;5074932;28;20381;-71
2022/03/17 10:37:16;;;;;;;17.80;7.80;;;7.50;99.90;;;;;;5074782;28;20017;-71
2022/03/17 10:39:46;;;;;;;18.20;8.30;;;7.50;99.90;;;;;;5074894;28;20521;-70
2022/03/17 10:42:16;;;;;;;13.50;7.20;;;7.60;99.90;;;;;;5074723;28;20111;-71
2022/03/17 10:44:49;;;;;;;16.10;7.85;;;7.60;99.90;;;;;;5074954;28;20512;-71
2022/03/17 10:47:29;;;;;;;13.70;6.40;;;7.70;99.90;;;;;;5074946;28;20032;-71
2022/03/17 10:50:01;;;;;;;26.73;7.75;;;7.80;99.90;;;;;;5074616;28;20438;-70
2022/03/17 10:52:51;;;;;;;18.05;6.30;;;7.80;99.90;;;;;;5074736;28;20394;-71
2022/03/17 10:55:27;;;;;;;12.02;5.75;;;7.90;99.90;;;;;;5074495;28;20028;-71
2022/03/17 10:58:09;;;;;;;12.98;6.05;;;8.00;99.90;;;;;;5074218;28;20029;-70
2022/03/17 11:00:45;;;;;;;16.27;6.10;;;8.10;99.90;;;;;;5074506;28;20029;-70
2022/03/17 11:03:10;;;;;;;11.93;5.53;;;8.10;99.90;;;;;;5074536;28;20407;-71
2022/03/17 11:05:36;;;;;;;15.75;6.68;;;8.20;99.90;;;;;;5075267;28;20031;-70
2022/03/17 11:08:02;;;;;;;13.05;6.13;;;8.30;99.90;;;;;;5074761;28;20036;-71
2022/03/17 11:10:28;;;;;;;14.85;5.53;;;8.30;99.90;;;;;;5074313;28;20023;-71
2022/03/17 11:12:55;;;;;;;13.98;5.90;;;8.30;99.90;;;;;;5075107;28;20017;-71
2022/03/17 11:15:31;;;;;;;15.32;5.80;;;8.30;99.90;;;;;;5074161;28;20074;-70
2022/03/17 11:18:04;;;;;;;17.50;5.72;;;8.40;99.90;;;;;;5074019;28;20100;-70
2022/03/17 11:20:31;;;;;;;14.27;5.93;;;8.50;99.90;;;;;;5073931;28;20033;-71
2022/03/17 11:23:15;;;;;;;11.05;5.00;;;8.50;99.90;;;;;;5073985;28;20048;-70
2022/03/17 11:25:49;;;;;;;13.60;5.03;;;8.50;99.90;;;;;;5074120;28;20552;-71
2022/03/17 11:28:16;;;;;;;19.88;6.03;;;8.50;99.90;;;;;;5074672;28;20032;-69
2022/03/17 11:30:44;;;;;;;17.65;5.93;;;8.50;99.90;;;;;;5073725;28;20104;-69
2022/03/17 11:33:25;;;;;;;13.35;5.90;;;8.50;99.90;;;;;;5073843;28;20056;-69
2022/03/17 11:35:59;;;;;;;13.65;5.55;;;8.50;99.90;;;;;;5073722;28;20025;-69
2022/03/17 11:38:36;;;;;;;20.92;6.22;;;8.50;99.90;;;;;;5073724;28;20511;-69
2022/03/17 11:41:10;;;;;;;19.45;6.22;;;8.60;99.90;;;;;;5073828;28;20095;-69
2022/03/17 11:43:45;;;;;;;17.35;6.80;;;8.70;99.90;;;;;;5073686;28;20024;-69
2022/03/17 11:46:13;;;;;;;15.35;5.82;;;8.80;99.90;;;;;;5073897;28;20020;-69
2022/03/17 11:48:39;;;;;;;16.33;5.63;;;8.80;99.90;;;;;;5073775;28;20488;-70
2022/03/17 11:51:07;;;;;;;14.18;5.68;;;8.90;99.90;;;;;;5073409;28;20025;-69
2022/03/17 11:53:47;;;;;;;19.88;7.07;;;9.00;99.90;;;;;;5073827;28;20024;-70
2022/03/17 11:56:41;;;;;;;18.33;6.65;;;9.00;99.90;;;;;;5072223;28;20021;-70
2022/03/17 11:59:07;;;;;;;20.35;6.35;;;9.00;99.90;;;;;;5073943;28;20116;-70
2022/03/17 12:01:34;;;;;;;;;;;9.00;99.90;;;;;;5073743;28;20046;-70
2022/03/17 12:04:00;;;;;;;;;;;9.00;99.90;;;;;;5074093;28;20521;-70
2022/03/17 12:06:30;;;;;;;;;;;9.00;99.90;;;;;;5073454;28;20431;-70
2022/03/17 12:08:58;;;;;;;;;;;9.00;99.90;;;;;;5073142;28;20043;-69
2022/03/17 12:11:25;;;;;;;;;;;9.10;99.90;;;;;;5073354;28;20028;-70
2022/03/17 12:14:09;;;;;;;;;;;9.10;99.90;;;;;;5073354;28;20036;-70
2022/03/17 12:16:39;;;;;;;;;;;9.20;99.90;;;;;;5066390;28;20584;-70
2022/03/17 12:19:05;;;;;;;;;;;9.20;99.90;;;;;;5061911;28;20044;-70
2022/03/17 12:21:49;;;;;;;;;;;9.20;99.90;;;;;;5073667;28;20446;-69
2022/03/17 12:24:32;;;;;;;;;;;9.20;99.90;;;;;;5071693;28;20030;-68
2022/03/17 12:27:10;;;;;;;;;;;9.20;99.90;;;;;;5068681;28;20107;-69
2022/03/17 12:29:36;;;;;;;;;;;9.40;99.90;;;;;;5067637;28;20053;-69
2022/03/17 12:32:03;;;;;;;;;;;9.40;99.90;;;;;;5091999;28;20121;-70
2022/03/17 12:34:29;;;;;;;;;;;9.50;99.90;;;;;;5094030;28;20039;-70
2022/03/17 12:36:55;;;;;;;;;;;9.50;99.90;;;;;;5092869;28;20035;-70
2022/03/17 12:39:28;;;;;;;;;;;9.70;99.90;;;;;;5093287;28;20494;-69
2022/03/17 12:41:53;;;;;;;;;;;9.70;99.90;;;;;;5093361;28;20076;-70
2022/03/17 12:44:23;;;;;;;;;;;9.70;99.90;;;;;;5091969;28;20093;-69
2022/03/17 12:46:49;;;;;;;;;;;9.70;99.90;;;;;;5093175;28;20054;-70
2022/03/17 12:49:15;;;;;;;;;;;9.70;99.90;;;;;;5093017;28;20036;-70
2022/03/17 12:51:40;;;;;;;;;;;9.70;99.90;;;;;;5092955;28;20584;-70
2022/03/17 12:54:06;;;;;;;;;;;9.60;99.90;;;;;;5092644;28;20388;-69
2022/03/17 12:56:45;;;;;;;;;;;9.60;99.90;;;;;;5090809;28;20017;-70
2022/03/17 12:59:11;;;;;;;;;;;9.60;99.90;;;;;;5092554;28;20128;-69
2022/03/17 13:01:39;;;;;;;;;;;9.60;99.90;;;;;;5091298;28;20045;-70
2022/03/17 13:04:05;;;;;;;;;;;9.60;99.90;;;;;;5092274;28;20279;-70
2022/03/17 13:09:15;;;;;;;;;;;9.60;99.90;;;;;;5092017;28;20070;-69
2022/03/17 13:14:25;;;;;;;;;;;9.50;99.90;;;;;;5092687;28;19911;-70
2022/03/17 13:17:02;;;;;;;;;;;9.40;99.90;;;;;;5090628;28;20037;-69
2022/03/17 13:19:27;;;;;;;;;;;9.40;99.90;;;;;;5092791;28;20408;-69
2022/03/17 13:22:05;;;;;;;;;;;9.40;99.90;;;;;;5095660;28;20116;-69
2022/03/17 13:24:30;;;;;;;;;;;9.50;99.90;;;;;;5095635;28;20529;-69